Time;durP1;ratioP1;P1;durP2;ratioP2;P2;SDS_P1;SDS_P2;PMS_P1;PMS_P2;Temp;Humidity;BMP_temperature;BMP_pressure;BME280_temperature;BME280_humidity;BME280_pressure;Samples;Min_cycle;Max_cycle;Signal;HPM_P1;HPM_P2
2023/01/06 00:02:15;;;;;;;3.55;1.70;;;20.10;61.50;;;;;;5073662;28;20052;-60
2023/01/06 00:04:40;;;;;;;5.43;2.28;;;20.10;61.50;;;;;;5072897;28;20538;-59
2023/01/06 00:07:06;;;;;;;6.85;1.90;;;20.10;61.50;;;;;;5074801;28;20064;-60
2023/01/06 00:09:33;;;;;;;7.25;1.90;;;20.10;61.50;;;;;;5074421;28;20174;-59
2023/01/06 00:11:59;;;;;;;4.72;1.85;;;20.10;61.50;;;;;;5073641;28;20112;-60
2023/01/06 00:14:24;;;;;;;5.57;1.60;;;20.10;61.50;;;;;;5074170;28;20131;-60
2023/01/06 00:16:50;;;;;;;5.35;1.60;;;20.10;61.50;;;;;;5074718;28;20060;-60
2023/01/06 00:19:15;;;;;;;6.53;1.73;;;20.10;61.50;;;;;;5073909;28;20051;-59
2023/01/06 00:21:43;;;;;;;5.57;2.20;;;20.00;61.40;;;;;;5074897;28;20051;-60
2023/01/06 00:24:10;;;;;;;;;;;20.00;61.40;;;;;;5074805;28;20032;-60
2023/01/06 00:26:36;;;;;;;5.18;1.92;;;20.00;61.30;;;;;;5073537;28;20030;-59
2023/01/06 00:29:02;;;;;;;5.38;1.95;;;20.00;61.50;;;;;;5073532;28;20500;-59
2023/01/06 00:31:27;;;;;;;6.60;1.90;;;20.00;61.40;;;;;;5074458;28;20162;-59
2023/01/06 00:33:55;;;;;;;4.10;1.92;;;20.00;61.40;;;;;;5073854;28;20373;-60
2023/01/06 00:36:20;;;;;;;6.07;1.80;;;20.00;61.40;;;;;;5072771;28;20068;-60
2023/01/06 00:38:47;;;;;;;5.93;1.83;;;20.00;61.40;;;;;;5073583;28;20145;-60
2023/01/06 00:43:58;;;;;;;5.80;1.75;;;20.00;61.40;;;;;;5074364;28;20127;-59
2023/01/06 00:46:27;;;;;;;5.68;1.98;;;20.00;61.40;;;;;;5073077;28;20127;-60
2023/01/06 00:48:59;;;;;;;5.25;2.20;;;20.00;61.40;;;;;;5074256;28;20123;-59
2023/01/06 00:51:25;;;;;;;4.82;2.00;;;20.00;61.40;;;;;;5073703;28;20055;-60
2023/01/06 00:53:50;;;;;;;4.80;1.85;;;19.90;61.40;;;;;;5073532;28;20045;-60
2023/01/06 00:56:16;;;;;;;3.47;1.80;;;19.90;61.30;;;;;;5073719;28;20052;-59
2023/01/06 00:58:41;;;;;;;4.68;1.70;;;19.90;61.30;;;;;;5073846;28;20037;-59
2023/01/06 01:01:07;;;;;;;4.80;1.95;;;19.90;61.40;;;;;;5067971;28;20106;-59
2023/01/06 01:03:34;;;;;;;5.13;1.95;;;19.90;61.30;;;;;;5073023;28;20040;-59
2023/01/06 01:06:00;;;;;;;5.18;1.70;;;19.90;61.30;;;;;;5073508;28;20045;-59
2023/01/06 01:08:26;;;;;;;5.90;1.90;;;19.90;61.30;;;;;;5072685;28;20151;-60
2023/01/06 01:10:52;;;;;;;3.42;1.60;;;19.90;61.30;;;;;;5072279;28;20120;-59
2023/01/06 01:13:17;;;;;;;3.88;1.88;;;19.90;61.30;;;;;;5073283;28;20093;-59
2023/01/06 01:15:43;;;;;;;5.90;1.92;;;19.90;61.30;;;;;;5072449;28;20044;-59
2023/01/06 01:18:08;;;;;;;5.68;1.90;;;19.90;61.30;;;;;;5071890;28;20052;-60
2023/01/06 01:20:34;;;;;;;5.80;2.05;;;19.90;61.30;;;;;;5071693;28;20048;-60
2023/01/06 01:23:00;;;;;;;5.47;1.80;;;19.90;61.30;;;;;;5072776;28;20060;-60
2023/01/06 01:25:25;;;;;;;5.60;1.60;;;19.90;61.30;;;;;;5073172;28;20068;-60
2023/01/06 01:27:51;;;;;;;4.13;1.50;;;19.90;61.30;;;;;;5073175;28;20396;-60
2023/01/06 01:30:16;;;;;;;5.07;1.50;;;19.90;61.30;;;;;;5070581;28;20053;-59
2023/01/06 01:32:42;;;;;;;5.13;1.42;;;19.80;61.20;;;;;;5072771;28;20037;-60
2023/01/06 01:35:08;;;;;;;4.78;1.67;;;19.90;61.30;;;;;;5072441;28;20047;-60
2023/01/06 01:37:34;;;;;;;4.22;1.90;;;19.80;61.20;;;;;;5072841;28;20072;-60
2023/01/06 01:39:59;;;;;;;4.63;1.58;;;19.80;61.20;;;;;;5072912;28;20464;-59
2023/01/06 01:42:25;;;;;;;5.32;1.70;;;19.80;61.20;;;;;;5071905;28;20049;-60
2023/01/06 01:45:01;;;;;;;4.55;1.50;;;19.80;61.20;;;;;;5071627;28;20041;-60
2023/01/06 01:47:48;;;;;;;3.22;1.23;;;19.80;61.20;;;;;;5072708;28;20045;-60
2023/01/06 01:50:31;;;;;;;3.47;1.50;;;19.80;61.10;;;;;;5070845;28;20075;-60
2023/01/06 01:53:18;;;;;;;4.50;1.38;;;19.80;61.10;;;;;;5072850;28;20087;-60
2023/01/06 01:55:43;;;;;;;3.03;1.45;;;19.80;61.10;;;;;;5054784;28;20056;-60
2023/01/06 01:58:13;;;;;;;3.92;1.25;;;19.80;61.20;;;;;;5071765;28;20044;-60
2023/01/06 02:00:41;;;;;;;3.95;1.55;;;19.80;61.20;;;;;;5070940;28;20097;-60
2023/01/06 02:03:06;;;;;;;4.03;1.30;;;19.70;61.10;;;;;;5054969;28;20044;-60
2023/01/06 02:05:32;;;;;;;5.80;1.73;;;19.70;61.10;;;;;;5070544;28;20045;-59
2023/01/06 02:07:58;;;;;;;3.92;1.38;;;19.80;61.10;;;;;;5066422;28;20044;-60
2023/01/06 02:10:24;;;;;;;2.38;1.30;;;19.70;61.10;;;;;;5070288;28;20056;-59
2023/01/06 02:12:53;;;;;;;2.75;1.25;;;19.70;61.10;;;;;;5072663;28;20040;-60
2023/01/06 02:15:27;;;;;;;4.18;1.52;;;19.70;61.10;;;;;;5070732;28;20057;-60
2023/01/06 02:18:11;;;;;;;3.08;1.23;;;19.70;61.70;;;;;;5070808;28;20123;-59
2023/01/06 02:21:10;;;;;;;4.53;1.48;;;19.70;61.10;;;;;;5072414;28;20477;-59
2023/01/06 02:24:12;;;;;;;3.80;1.00;;;19.70;61.00;;;;;;5035310;28;20075;-59
2023/01/06 02:27:07;;;;;;;3.53;1.30;;;19.70;61.10;;;;;;5070684;28;20107;-59
2023/01/06 02:29:59;;;;;;;3.63;1.27;;;19.70;61.00;;;;;;5070858;28;20051;-59
2023/01/06 02:32:28;;;;;;;4.00;1.30;;;19.70;61.00;;;;;;5053326;28;20455;-59
2023/01/06 02:35:13;;;;;;;4.32;1.48;;;19.70;61.10;;;;;;5070911;28;20063;-59
2023/01/06 02:37:50;;;;;;;6.00;1.30;;;19.70;61.10;;;;;;5071015;28;20087;-59
2023/01/06 02:40:19;;;;;;;3.27;1.10;;;19.60;61.00;;;;;;5070185;28;20083;-60
2023/01/06 02:42:46;;;;;;;;;;;19.60;61.10;;;;;;5072460;28;20648;-59
2023/01/06 02:45:29;;;;;;;3.93;1.27;;;19.60;60.90;;;;;;5070689;28;20058;-59
2023/01/06 02:47:57;;;;;;;3.17;1.10;;;19.60;61.10;;;;;;5071219;28;20303;-59
2023/01/06 02:50:27;;;;;;;;;;;19.60;61.10;;;;;;5072453;28;20480;-59
2023/01/06 02:52:59;;;;;;;3.33;1.10;;;19.60;61.00;;;;;;5057677;28;20372;-59
2023/01/06 02:55:35;;;;;;;4.32;1.40;;;19.60;61.10;;;;;;5075918;28;20550;-59
2023/01/06 02:58:06;;;;;;;4.25;1.05;;;19.60;61.10;;;;;;5074927;28;20115;-59
2023/01/06 03:00:35;;;;;;;3.60;1.08;;;19.60;61.00;;;;;;5068689;28;20041;-59
2023/01/06 03:03:09;;;;;;;2.58;1.00;;;19.60;61.10;;;;;;5056009;28;20065;-59
2023/01/06 03:05:35;;;;;;;3.03;1.00;;;19.60;61.00;;;;;;5037858;28;20053;-60
2023/01/06 03:08:04;;;;;;;3.20;1.10;;;19.60;61.00;;;;;;5054287;28;20052;-59
2023/01/06 03:10:29;;;;;;;2.45;1.02;;;19.60;61.10;;;;;;5049103;28;20094;-59
2023/01/06 03:13:08;;;;;;;3.28;1.00;;;19.50;60.90;;;;;;5054708;28;20053;-59
2023/01/06 03:15:34;;;;;;;3.33;1.25;;;19.50;60.90;;;;;;5053047;28;20072;-59
2023/01/06 03:17:59;;;;;;;2.85;0.85;;;19.60;61.00;;;;;;5058703;28;20036;-60
2023/01/06 03:20:25;;;;;;;2.08;0.98;;;19.50;60.90;;;;;;5073931;28;20434;-60
2023/01/06 03:22:50;;;;;;;3.63;1.00;;;19.50;60.90;;;;;;5073913;28;20070;-59
2023/01/06 03:25:16;;;;;;;3.20;1.50;;;19.50;60.90;;;;;;5074066;28;20051;-60
2023/01/06 03:27:42;;;;;;;2.45;0.90;;;19.50;60.90;;;;;;5073474;28;20044;-59
2023/01/06 03:30:09;;;;;;;2.67;1.10;;;19.50;60.90;;;;;;5075402;28;20044;-60
2023/01/06 03:33:07;;;;;;;2.58;1.00;;;19.50;61.10;;;;;;5073900;28;20411;-59
2023/01/06 03:35:58;;;;;;;2.97;1.05;;;19.50;60.90;;;;;;5056325;28;20380;-59
2023/01/06 03:38:30;;;;;;;3.97;1.23;;;19.50;60.90;;;;;;5074020;28;20125;-59
2023/01/06 03:41:02;;;;;;;2.97;1.20;;;19.50;60.90;;;;;;5075316;28;20040;-59
2023/01/06 03:43:49;;;;;;;2.72;0.98;;;19.50;60.90;;;;;;5072970;28;20067;-59
2023/01/06 03:46:30;;;;;;;2.38;0.93;;;19.50;60.80;;;;;;5073847;28;20135;-59
2023/01/06 03:49:24;;;;;;;2.63;1.10;;;19.50;60.80;;;;;;5073299;28;20040;-59
2023/01/06 03:51:59;;;;;;;2.08;0.93;;;19.40;60.70;;;;;;5074204;28;20107;-59
2023/01/06 03:54:45;;;;;;;2.60;0.90;;;19.40;60.80;;;;;;5073898;28;20045;-59
2023/01/06 03:57:15;;;;;;;2.78;1.15;;;19.40;60.80;;;;;;5074111;28;20037;-59
2023/01/06 03:59:50;;;;;;;2.97;1.13;;;19.50;60.80;;;;;;5057095;28;20044;-59
2023/01/06 04:02:18;;;;;;;3.45;1.08;;;19.40;60.80;;;;;;5055282;28;20068;-59
2023/01/06 04:04:43;;;;;;;3.80;1.20;;;19.40;60.80;;;;;;5056380;28;20127;-60
2023/01/06 04:07:09;;;;;;;2.65;1.10;;;19.50;60.90;;;;;;5074854;28;20115;-60
2023/01/06 04:09:34;;;;;;;3.17;1.10;;;19.40;60.80;;;;;;5074332;28;20558;-60
2023/01/06 04:14:44;;;;;;;3.05;1.02;;;19.50;60.80;;;;;;5074556;28;20048;-60
2023/01/06 04:17:09;;;;;;;3.58;1.10;;;19.40;60.80;;;;;;5073671;28;20053;-60
2023/01/06 04:19:35;;;;;;;1.77;0.90;;;19.50;60.80;;;;;;5074828;28;20039;-60
2023/01/06 04:22:00;;;;;;;2.92;0.98;;;19.50;60.80;;;;;;5074663;28;20051;-60
2023/01/06 04:24:27;;;;;;;2.90;1.05;;;19.50;60.70;;;;;;5073388;28;20047;-60
2023/01/06 04:26:52;;;;;;;3.65;1.00;;;19.50;60.70;;;;;;5074622;28;20040;-59
2023/01/06 04:29:18;;;;;;;2.05;0.88;;;19.50;60.70;;;;;;5073877;28;20049;-60
2023/01/06 04:31:43;;;;;;;2.47;0.90;;;19.50;60.70;;;;;;5072423;28;20124;-60
2023/01/06 04:34:09;;;;;;;1.83;1.02;;;19.50;60.80;;;;;;5074354;28;20051;-60
2023/01/06 04:36:35;;;;;;;2.55;1.20;;;19.50;60.70;;;;;;5074459;28;20044;-59
2023/01/06 04:39:00;;;;;;;2.63;1.10;;;19.50;60.70;;;;;;5073676;28;20102;-60
2023/01/06 04:41:26;;;;;;;2.75;1.15;;;19.50;60.60;;;;;;5074328;28;20090;-60
2023/01/06 04:43:52;;;;;;;2.97;1.02;;;19.50;60.60;;;;;;5074535;28;20389;-60
2023/01/06 04:46:17;;;;;;;1.88;0.98;;;19.60;60.60;;;;;;5073217;28;20067;-60
2023/01/06 04:48:43;;;;;;;2.28;0.95;;;19.60;60.60;;;;;;5074153;28;20400;-59
2023/01/06 04:51:09;;;;;;;2.85;1.10;;;19.60;60.60;;;;;;5073761;28;20131;-60
2023/01/06 04:53:39;;;;;;;3.95;1.20;;;19.60;60.60;;;;;;5072025;28;20396;-59
2023/01/06 04:56:06;;;;;;;1.92;0.82;;;19.60;60.60;;;;;;5074214;28;20109;-59
2023/01/06 04:58:32;;;;;;;3.13;1.05;;;19.60;60.60;;;;;;5073724;28;20123;-59
2023/01/06 05:01:01;;;;;;;3.53;1.00;;;19.60;60.50;;;;;;5072762;28;20163;-60
2023/01/06 05:03:27;;;;;;;3.05;1.00;;;19.70;60.50;;;;;;5053146;28;20056;-60
2023/01/06 05:05:53;;;;;;;2.20;1.00;;;19.70;60.50;;;;;;5064256;28;20070;-60
2023/01/06 05:08:18;;;;;;;1.60;1.10;;;19.70;60.50;;;;;;5072567;28;20049;-59
2023/01/06 05:10:44;;;;;;;2.13;0.90;;;19.70;60.50;;;;;;5068346;28;20052;-60
2023/01/06 05:13:09;;;;;;;2.22;0.90;;;19.70;61.10;;;;;;5072271;28;20602;-60
2023/01/06 05:15:35;;;;;;;1.58;0.80;;;19.70;60.50;;;;;;5083815;28;20044;-60
2023/01/06 05:18:00;;;;;;;2.45;0.90;;;19.70;60.40;;;;;;5080076;28;20040;-60
2023/01/06 05:20:26;;;;;;;2.05;0.95;;;19.70;60.40;;;;;;5072416;28;20072;-59
2023/01/06 05:22:51;;;;;;;1.85;0.98;;;19.70;60.40;;;;;;5073303;28;20488;-59
2023/01/06 05:25:17;;;;;;;1.95;0.95;;;19.80;60.40;;;;;;5071868;28;20135;-60
2023/01/06 05:27:43;;;;;;;3.05;1.10;;;19.80;60.40;;;;;;5072851;28;20043;-59
2023/01/06 05:30:09;;;;;;;1.52;0.80;;;19.80;60.40;;;;;;5060562;28;20135;-59
2023/01/06 05:32:34;;;;;;;1.63;0.90;;;19.80;60.40;;;;;;5052461;28;20045;-60
2023/01/06 05:35:00;;;;;;;3.10;0.90;;;19.80;60.40;;;;;;5052505;28;20047;-60
2023/01/06 05:37:25;;;;;;;2.47;0.93;;;19.80;60.30;;;;;;5052690;28;20051;-60
2023/01/06 05:39:51;;;;;;;2.13;0.82;;;19.80;60.30;;;;;;5051900;28;20048;-60
2023/01/06 05:42:16;;;;;;;2.15;0.80;;;19.80;60.30;;;;;;5052362;28;20077;-60
2023/01/06 05:44:42;;;;;;;3.42;1.05;;;19.80;60.30;;;;;;5051715;28;20485;-59
2023/01/06 05:47:08;;;;;;;1.60;0.80;;;19.80;60.20;;;;;;5053151;28;20400;-60
2023/01/06 05:49:33;;;;;;;2.15;0.85;;;19.80;60.30;;;;;;5052246;28;20056;-59
2023/01/06 05:51:59;;;;;;;1.63;0.80;;;19.90;60.30;;;;;;5051200;28;20037;-60
2023/01/06 05:54:24;;;;;;;1.85;0.90;;;19.80;60.20;;;;;;5050780;28;20655;-59
2023/01/06 05:56:50;;;;;;;1.33;0.82;;;19.90;60.20;;;;;;5052119;28;20377;-60
2023/01/06 05:59:15;;;;;;;1.40;0.70;;;19.90;60.20;;;;;;5052403;28;20133;-59
2023/01/06 06:01:41;;;;;;;2.08;0.90;;;19.90;60.20;;;;;;5053201;28;20040;-60
2023/01/06 06:04:06;;;;;;;1.77;0.80;;;19.90;60.20;;;;;;5052307;28;20552;-60
2023/01/06 06:06:32;;;;;;;1.05;0.70;;;19.90;60.20;;;;;;5052563;28;20044;-60
2023/01/06 06:08:58;;;;;;;2.38;1.10;;;19.90;60.20;;;;;;5052869;28;20147;-59
2023/01/06 06:11:23;;;;;;;2.85;0.90;;;19.90;60.20;;;;;;5050408;28;20396;-59
2023/01/06 06:13:51;;;;;;;1.88;0.80;;;19.90;60.20;;;;;;5047924;28;20037;-60
2023/01/06 06:16:17;;;;;;;2.63;0.80;;;19.90;60.80;;;;;;5052189;28;20116;-59
2023/01/06 06:18:43;;;;;;;1.65;0.90;;;19.90;60.20;;;;;;5051718;28;20052;-60
2023/01/06 06:21:13;;;;;;;2.80;0.82;;;19.90;60.10;;;;;;5051528;28;20059;-59
2023/01/06 06:23:39;;;;;;;2.40;0.80;;;19.90;60.10;;;;;;5050682;28;20072;-59
2023/01/06 06:26:05;;;;;;;1.75;0.80;;;19.90;60.00;;;;;;5052046;28;20073;-60
2023/01/06 06:28:31;;;;;;;2.35;0.90;;;19.90;60.00;;;;;;5051079;28;20400;-60
2023/01/06 06:31:16;;;;;;;2.30;0.88;;;19.90;60.10;;;;;;5051481;28;20047;-60
2023/01/06 06:33:42;;;;;;;2.05;0.60;;;19.90;60.00;;;;;;5052773;28;20048;-59
2023/01/06 06:36:10;;;;;;;1.95;0.75;;;19.90;60.00;;;;;;5052655;28;20610;-60
2023/01/06 06:38:39;;;;;;;2.08;0.80;;;19.90;60.00;;;;;;5051750;28;20558;-60
2023/01/06 06:41:05;;;;;;;1.95;0.82;;;19.90;60.00;;;;;;5052708;28;20482;-60
2023/01/06 06:43:31;;;;;;;1.50;0.60;;;19.90;60.60;;;;;;5052047;28;20103;-60
2023/01/06 06:45:56;;;;;;;2.13;0.80;;;19.90;60.00;;;;;;5050255;28;20431;-60
2023/01/06 06:48:22;;;;;;;1.05;0.70;;;19.90;60.00;;;;;;5052103;28;20511;-60
2023/01/06 06:50:58;;;;;;;1.45;0.70;;;19.90;60.00;;;;;;5052470;28;20458;-60
2023/01/06 06:53:24;;;;;;;3.08;0.65;;;19.90;59.90;;;;;;5050281;28;20040;-59
2023/01/06 06:55:50;;;;;;;1.92;0.90;;;19.90;60.00;;;;;;5052591;28;20124;-60
2023/01/06 06:58:15;;;;;;;1.67;0.70;;;19.90;59.90;;;;;;5051894;28;20056;-59
2023/01/06 07:00:41;;;;;;;1.65;0.60;;;19.90;59.90;;;;;;5051495;28;20041;-60
2023/01/06 07:03:06;;;;;;;2.05;0.68;;;19.90;60.00;;;;;;5052354;28;20037;-59
2023/01/06 07:05:32;;;;;;;2.15;0.70;;;19.90;60.00;;;;;;5052206;28;20045;-60
2023/01/06 07:07:58;;;;;;;1.73;0.77;;;19.90;60.70;;;;;;5051434;28;20572;-59
2023/01/06 07:10:23;;;;;;;1.45;0.68;;;19.90;60.00;;;;;;5051895;28;20048;-60
2023/01/06 07:12:49;;;;;;;4.95;1.13;;;19.90;60.10;;;;;;5051402;28;20110;-60
2023/01/06 07:15:14;;;;;;;2.25;0.93;;;19.90;60.30;;;;;;5051598;28;20045;-60
2023/01/06 07:17:40;;;;;;;2.70;0.70;;;19.90;60.40;;;;;;5051961;28;20060;-59
2023/01/06 07:20:07;;;;;;;3.67;1.02;;;19.90;60.40;;;;;;5049971;28;20408;-59
2023/01/06 07:22:36;;;;;;;2.28;0.80;;;19.90;60.40;;;;;;5051804;28;20045;-59
2023/01/06 07:25:01;;;;;;;2.42;0.80;;;19.90;60.50;;;;;;5029330;28;20053;-62
2023/01/06 07:27:27;;;;;;;1.98;1.10;;;19.90;60.50;;;;;;5049842;28;20135;-59
2023/01/06 07:29:53;;;;;;;2.05;0.90;;;19.90;60.50;;;;;;5051682;28;20049;-59
2023/01/06 07:32:18;;;;;;;2.45;0.73;;;19.90;60.70;;;;;;5051299;28;20033;-59
2023/01/06 07:34:44;;;;;;;1.05;0.88;;;19.90;60.80;;;;;;5050995;28;20134;-60
2023/01/06 07:37:09;;;;;;;2.35;0.60;;;19.90;60.90;;;;;;5052513;28;20068;-60
2023/01/06 07:39:35;;;;;;;3.80;0.90;;;19.90;60.90;;;;;;5055470;28;20037;-61
2023/01/06 07:42:00;;;;;;;3.15;0.77;;;19.90;60.90;;;;;;5054594;28;20052;-61
2023/01/06 07:44:26;;;;;;;5.80;0.70;;;19.90;61.00;;;;;;5055298;28;20512;-60
2023/01/06 07:46:51;;;;;;;1.40;0.70;;;20.00;61.10;;;;;;5055756;28;20056;-59
2023/01/06 07:49:17;;;;;;;4.57;0.70;;;19.90;61.20;;;;;;5054293;28;20106;-60
2023/01/06 07:51:42;;;;;;;2.95;0.70;;;19.90;61.10;;;;;;5055151;28;20110;-60
2023/01/06 07:54:08;;;;;;;1.95;0.70;;;19.90;61.20;;;;;;5055397;28;20729;-60
2023/01/06 07:56:34;;;;;;;2.47;0.90;;;19.90;61.30;;;;;;5054285;28;20037;-60
2023/01/06 07:58:59;;;;;;;4.07;0.85;;;19.90;61.30;;;;;;5055214;28;20044;-60
2023/01/06 08:01:25;;;;;;;2.22;0.70;;;20.00;61.40;;;;;;5054791;28;20057;-59
2023/01/06 08:03:50;;;;;;;3.50;0.90;;;20.00;61.40;;;;;;5053466;28;20488;-60
2023/01/06 08:06:16;;;;;;;3.67;0.90;;;20.00;61.40;;;;;;5054922;28;20397;-60
2023/01/06 08:08:41;;;;;;;3.80;0.80;;;20.00;61.50;;;;;;5055075;28;20049;-59
2023/01/06 08:11:09;;;;;;;1.40;0.70;;;20.00;61.50;;;;;;5054155;28;20127;-60
2023/01/06 08:13:35;;;;;;;2.30;0.77;;;20.00;61.60;;;;;;5055343;28;20055;-60
2023/01/06 08:16:04;;;;;;;2.65;0.90;;;20.00;61.60;;;;;;5052955;28;20048;-59
2023/01/06 08:18:30;;;;;;;1.45;0.70;;;20.00;61.60;;;;;;5052858;28;20045;-59
2023/01/06 08:21:00;;;;;;;2.50;0.75;;;20.00;61.60;;;;;;5048877;28;20052;-59
2023/01/06 08:23:26;;;;;;;1.77;0.77;;;20.00;61.60;;;;;;5050875;28;20055;-59
2023/01/06 08:25:52;;;;;;;5.32;0.80;;;20.00;61.60;;;;;;5040438;28;20045;-59
2023/01/06 08:28:17;;;;;;;3.42;0.90;;;20.00;61.50;;;;;;5052384;28;20044;-60
2023/01/06 08:30:43;;;;;;;4.35;0.90;;;20.00;61.50;;;;;;5053125;28;20041;-59
2023/01/06 08:33:08;;;;;;;3.03;0.77;;;20.10;61.60;;;;;;5053278;28;20480;-62
2023/01/06 08:35:34;;;;;;;1.17;0.70;;;20.10;61.60;;;;;;5053929;28;20423;-58
2023/01/06 08:38:00;;;;;;;3.80;0.60;;;20.10;61.50;;;;;;5052415;28;20098;-61
2023/01/06 08:40:25;;;;;;;3.15;0.70;;;20.10;61.50;;;;;;5052337;28;20040;-59
2023/01/06 08:42:51;;;;;;;2.22;0.80;;;20.10;61.40;;;;;;5053854;28;20041;-59
2023/01/06 08:45:16;;;;;;;2.13;0.73;;;20.10;61.40;;;;;;5052089;28;20131;-60
2023/01/06 08:47:42;;;;;;;3.65;0.90;;;20.10;61.40;;;;;;5053617;28;20495;-60
2023/01/06 08:50:08;;;;;;;2.85;0.60;;;20.10;61.50;;;;;;5053062;28;20067;-59
2023/01/06 08:52:33;;;;;;;2.00;0.70;;;20.10;61.40;;;;;;5044420;28;20042;-60
2023/01/06 08:54:59;;;;;;;2.85;0.65;;;20.10;61.40;;;;;;5034603;28;20493;-59
2023/01/06 08:57:24;;;;;;;2.85;0.82;;;20.10;61.50;;;;;;5032990;28;20116;-59
2023/01/06 08:59:50;;;;;;;1.10;0.80;;;20.10;61.40;;;;;;5032237;28;20136;-59
2023/01/06 09:02:16;;;;;;;1.95;0.70;;;20.10;61.50;;;;;;5038338;28;20037;-60
2023/01/06 09:04:41;;;;;;;1.20;0.75;;;20.10;61.40;;;;;;5033389;28;20053;-60
2023/01/06 09:07:07;;;;;;;2.08;0.70;;;20.10;61.40;;;;;;5032122;28;20131;-60
2023/01/06 09:09:32;;;;;;;2.25;0.90;;;20.10;61.40;;;;;;5057639;28;20064;-60
2023/01/06 09:11:58;;;;;;;3.38;0.90;;;20.10;61.40;;;;;;5051992;28;20072;-60
2023/01/06 09:14:23;;;;;;;4.63;1.10;;;20.20;61.40;;;;;;5050624;28;20152;-59
2023/01/06 09:16:49;;;;;;;0.85;0.70;;;20.20;61.40;;;;;;5053127;28;20128;-60
2023/01/06 09:19:15;;;;;;;5.32;0.88;;;20.20;61.30;;;;;;5052805;28;20049;-60
2023/01/06 09:21:41;;;;;;;1.77;0.70;;;20.20;61.30;;;;;;5052190;28;20094;-60
2023/01/06 09:24:11;;;;;;;4.25;0.93;;;20.20;61.30;;;;;;5052985;28;20056;-60
2023/01/06 09:26:36;;;;;;;1.40;0.73;;;20.20;61.30;;;;;;5043541;28;20500;-60
2023/01/06 09:29:02;;;;;;;3.53;0.88;;;20.30;61.50;;;;;;5053239;28;20043;-60
2023/01/06 09:31:28;;;;;;;2.15;0.95;;;20.30;61.50;;;;;;5053535;28;20702;-60
2023/01/06 09:33:54;;;;;;;2.08;0.80;;;20.30;61.50;;;;;;5049898;28;20041;-60
2023/01/06 09:36:20;;;;;;;1.88;0.80;;;20.30;61.50;;;;;;5053038;28;20063;-60
2023/01/06 09:38:45;;;;;;;2.55;0.80;;;20.30;61.60;;;;;;5037894;28;20052;-60
2023/01/06 09:41:32;;;;;;;4.28;0.90;;;20.30;61.60;;;;;;5049494;28;20028;-60
2023/01/06 09:44:09;;;;;;;1.42;0.63;;;20.30;61.50;;;;;;5051622;28;20048;-59
2023/01/06 09:46:37;;;;;;;1.65;0.80;;;20.30;61.40;;;;;;5051480;28;20431;-59
2023/01/06 09:49:21;;;;;;;2.75;0.60;;;20.40;61.40;;;;;;5050656;28;20047;-60
2023/01/06 09:51:47;;;;;;;2.97;0.80;;;20.40;61.40;;;;;;5052065;28;20461;-59
2023/01/06 09:54:32;;;;;;;1.85;0.70;;;20.30;61.30;;;;;;5034327;28;20476;-59
2023/01/06 09:57:05;;;;;;;3.28;0.90;;;20.40;61.10;;;;;;5034917;28;20049;-59
2023/01/06 09:59:43;;;;;;;5.20;1.48;;;20.30;61.00;;;;;;5051944;28;20051;-60
2023/01/06 10:02:22;;;;;;;1.40;0.70;;;20.30;61.10;;;;;;5034710;28;20045;-59
2023/01/06 10:04:47;;;;;;;3.67;0.80;;;20.30;61.10;;;;;;5051413;28;20080;-58
2023/01/06 10:07:35;;;;;;;2.20;0.70;;;20.30;61.10;;;;;;5051126;28;20508;-58
2023/01/06 10:10:22;;;;;;;4.28;0.80;;;20.30;61.10;;;;;;5035832;28;20146;-58
2023/01/06 10:12:54;;;;;;;2.78;0.70;;;20.30;61.10;;;;;;5051290;28;20056;-58
2023/01/06 10:15:38;;;;;;;1.80;0.80;;;20.30;61.10;;;;;;5051950;28;20102;-58
2023/01/06 10:18:20;;;;;;;2.83;0.65;;;20.30;61.20;;;;;;5051697;28;20129;-58
2023/01/06 10:21:11;;;;;;;2.35;0.95;;;20.30;61.20;;;;;;5051339;28;20045;-58
2023/01/06 10:23:56;;;;;;;2.38;0.65;;;20.30;61.10;;;;;;5050080;28;20092;-58
2023/01/06 10:26:30;;;;;;;1.98;0.68;;;20.30;61.10;;;;;;5051659;28;20060;-59
2023/01/06 10:29:00;;;;;;;2.58;0.90;;;20.30;61.20;;;;;;5051253;28;20048;-59
2023/01/06 10:31:27;;;;;;;2.60;0.68;;;20.30;61.20;;;;;;5045331;28;20426;-59
2023/01/06 10:33:54;;;;;;;2.63;0.73;;;20.20;61.20;;;;;;5050716;28;20049;-59
2023/01/06 10:36:40;;;;;;;2.85;0.70;;;20.20;61.20;;;;;;5051926;28;20078;-59
2023/01/06 10:39:07;;;;;;;1.95;0.70;;;20.20;61.20;;;;;;5034332;28;20049;-60
2023/01/06 10:41:36;;;;;;;2.15;0.60;;;20.20;61.20;;;;;;5050707;28;20045;-60
2023/01/06 10:44:02;;;;;;;2.20;0.75;;;20.20;61.30;;;;;;5052398;28;20041;-60
2023/01/06 10:46:32;;;;;;;4.43;0.80;;;20.20;61.30;;;;;;5035935;28;20075;-60
2023/01/06 10:48:57;;;;;;;3.15;0.77;;;20.20;61.30;;;;;;5051799;28;20048;-60
2023/01/06 10:51:33;;;;;;;3.63;0.93;;;20.20;61.40;;;;;;5032693;28;20048;-60
2023/01/06 10:54:01;;;;;;;3.13;0.80;;;20.20;61.40;;;;;;5049082;28;20131;-60
2023/01/06 10:56:28;;;;;;;3.63;0.90;;;20.20;61.50;;;;;;5049388;28;20044;-60
2023/01/06 10:58:56;;;;;;;2.83;0.90;;;20.20;61.60;;;;;;5050230;28;20338;-60
2023/01/06 11:01:23;;;;;;;4.20;1.10;;;20.10;61.60;;;;;;5049989;28;20077;-60
2023/01/06 11:04:10;;;;;;;2.33;0.90;;;20.10;61.60;;;;;;5052200;28;20503;-59
2023/01/06 11:06:44;;;;;;;6.38;0.93;;;20.20;61.60;;;;;;5051790;28;20045;-60
2023/01/06 11:09:31;;;;;;;6.18;1.17;;;20.10;61.60;;;;;;5052001;28;20045;-60
2023/01/06 11:11:59;;;;;;;3.83;0.88;;;20.10;61.50;;;;;;5052538;28;20068;-60
2023/01/06 11:14:27;;;;;;;3.13;0.77;;;20.10;61.60;;;;;;5055449;28;20045;-59
2023/01/06 11:17:00;;;;;;;;;;;20.10;61.60;;;;;;5038358;28;20052;-60
2023/01/06 11:19:37;;;;;;;4.47;0.80;;;20.10;61.40;;;;;;5070454;28;20011;-59
2023/01/06 11:22:04;;;;;;;1.42;0.52;;;20.10;61.50;;;;;;5054786;28;20402;-59
2023/01/06 11:24:30;;;;;;;4.60;0.90;;;20.10;61.50;;;;;;5055310;28;20492;-60
2023/01/06 11:26:57;;;;;;;3.90;0.90;;;20.10;61.40;;;;;;5055221;28;20044;-59
2023/01/06 11:29:29;;;;;;;3.38;0.77;;;20.10;61.30;;;;;;5055660;28;20045;-59
2023/01/06 11:31:55;;;;;;;5.68;0.93;;;20.10;61.30;;;;;;5055930;28;20037;-60
2023/01/06 11:34:23;;;;;;;6.90;1.60;;;20.10;61.30;;;;;;5049324;28;20447;-59
2023/01/06 11:36:48;;;;;;;8.53;1.07;;;20.10;61.40;;;;;;5054154;28;20053;-59
2023/01/06 11:39:32;;;;;;;11.43;2.10;;;20.10;61.50;;;;;;5053797;28;20090;-60
2023/01/06 11:42:08;;;;;;;4.10;1.20;;;20.00;61.40;;;;;;5053972;28;20041;-59
2023/01/06 11:44:35;;;;;;;4.60;1.30;;;20.00;61.60;;;;;;5054025;28;20072;-59
2023/01/06 11:47:07;;;;;;;4.18;1.15;;;20.00;61.60;;;;;;5053552;28;20049;-60
2023/01/06 11:49:38;;;;;;;6.30;1.38;;;20.00;61.50;;;;;;5054732;28;20072;-59
2023/01/06 11:52:23;;;;;;;7.03;1.00;;;20.00;61.40;;;;;;5054071;28;20115;-60
2023/01/06 11:55:18;;;;;;;5.55;1.30;;;20.00;61.30;;;;;;5054808;28;20049;-60
2023/01/06 11:57:54;;;;;;;7.60;1.50;;;20.00;61.20;;;;;;5055595;28;20045;-60
2023/01/06 12:00:31;;;;;;;8.32;1.20;;;20.00;61.30;;;;;;5054849;28;20052;-61
2023/01/06 12:03:15;;;;;;;7.95;0.98;;;20.00;61.20;;;;;;5054786;28;20098;-61
2023/01/06 12:05:45;;;;;;;6.80;1.35;;;20.00;61.20;;;;;;5055188;28;20401;-60
2023/01/06 12:08:19;;;;;;;10.40;1.50;;;20.00;61.20;;;;;;5052921;28;20041;-59
2023/01/06 12:10:46;;;;;;;9.20;1.38;;;20.00;61.20;;;;;;5054640;28;20120;-60
2023/01/06 12:13:12;;;;;;;9.20;1.20;;;20.00;61.20;;;;;;5051295;28;20056;-60
2023/01/06 12:15:38;;;;;;;7.90;1.00;;;20.00;61.80;;;;;;5053012;28;20045;-60
2023/01/06 12:18:07;;;;;;;12.20;1.10;;;20.00;61.20;;;;;;5035649;28;20159;-59
2023/01/06 12:20:34;;;;;;;3.92;0.93;;;20.00;61.20;;;;;;5054304;28;20040;-59
2023/01/06 12:23:04;;;;;;;9.27;1.10;;;20.00;61.80;;;;;;5049751;28;20068;-58
2023/01/06 12:25:37;;;;;;;7.57;1.13;;;19.90;61.10;;;;;;5052020;28;20076;-61
2023/01/06 12:28:04;;;;;;;5.93;1.13;;;19.90;61.10;;;;;;5050314;28;20497;-59
2023/01/06 12:30:35;;;;;;;9.73;1.35;;;20.00;61.10;;;;;;5050879;28;20123;-57
2023/01/06 12:33:08;;;;;;;8.05;1.00;;;20.00;61.10;;;;;;5047811;28;20090;-58
2023/01/06 12:35:33;;;;;;;6.32;1.17;;;20.00;61.20;;;;;;5051495;28;20110;-59
2023/01/06 12:38:05;;;;;;;5.70;1.65;;;20.00;61.00;;;;;;5050597;28;20037;-57
2023/01/06 12:40:44;;;;;;;6.00;1.20;;;20.00;60.90;;;;;;5052103;28;20488;-59
2023/01/06 12:43:12;;;;;;;8.43;1.00;;;20.00;60.60;;;;;;5051783;28;20051;-57
2023/01/06 12:45:53;;;;;;;4.43;1.00;;;20.10;60.40;;;;;;5036252;28;20037;-67
2023/01/06 12:48:34;;;;;;;6.53;1.00;;;20.20;60.50;;;;;;5053526;28;20497;-58
2023/01/06 12:51:08;;;;;;;4.97;0.80;;;20.30;60.20;;;;;;5052092;28;20127;-58
2023/01/06 12:53:42;;;;;;;7.10;1.20;;;20.30;60.30;;;;;;5069523;28;20083;-59
2023/01/06 12:56:33;;;;;;;8.65;1.10;;;20.30;60.30;;;;;;5055719;28;20044;-59
2023/01/06 12:59:29;;;;;;;4.60;0.80;;;20.30;60.20;;;;;;5071707;28;20056;-59
2023/01/06 13:02:29;;;;;;;5.68;1.15;;;20.30;60.10;;;;;;5072743;28;20476;-59
2023/01/06 13:05:13;;;;;;;5.90;1.38;;;20.30;60.20;;;;;;5072606;28;20501;-59
2023/01/06 13:08:02;;;;;;;7.88;1.00;;;20.30;60.20;;;;;;5055623;28;20519;-57